METAR Data
IDs: Format: Raw Decoded Include TAF

Data at: 1330 UTC 25 Jun 2019

KLGA 251327Z VRB05KT 7SM OVC006 24/21 A2982 RMK AO2 RAB24E26 P0000 T02390211 $

KLGA 251327Z 2513/2618 13007KT 5SM -SHRA BR OVC007
  FM251600 17007KT P6SM VCTS SCT009 BKN025CB OVC040
  FM251900 21006KT P6SM BKN040
  FM252300 30008KT P6SM BKN050
  FM260200 34006KT P6SM SCT050